Accueil
METAR-TAF:

METAR-TAF

Aéroports :

Aéroport international de Gibraltar

Gibraltar, Gibraltar

latitude: 36-09N, longitude: 005-21W, altitude: 5 m

Observation

Le bulletin a été fait il y a 2 heures et 26 minutes, à 08:50 UTC
Vent 12 kt de est
Température 24°C
Humidité 78%
Pression 1018 hPa
Visibilité 10 km ou plus
Quelques nuages à une hauteur de 1400 ft
Nuages épars à une hauteur de 1800 ft

METAR: LXGB 200850Z 08012KT 9999 FEW014 SCT018 24/20 Q1018 BECMG FEW014

Heure: 13:16 (11:16 UTC)

Prévision

Le bulletin a été fait il y a 3 heures et 45 minutes, à 07:31 UTC
Prévision valable du 20 à 09 UTC au 20 à 18 UTC
Vent 12 kt de est
Visibilité 10 km ou plus
Quelques nuages à une hauteur de 1000 ft
Probabilité 40% :
Temporairement
du 20 à 09 UTC au 20 à 18 UTC
Vent 15 kt de est avec des rafales jusqu'à 25 kt
Nuages épars à une hauteur de 1800 ft

TAF: LXGB 200731Z 2009/2018 08012KT 9999 FEW010 PROB40 TEMPO 2009/2018 09015G25KT SCT018

Observations et prévisions météorologiques de plus de 4000 aéroports (messages METAR et TAF).

Les stations disponibles sont représentées par des disques jaunes et rouges sur la carte.

Passer la souris dessus pour voir le nom de la station.

Cliquer dessus pour voir les observations et prévisions météorologiques.

Pour changer de carte: cliquez sur les boutons verts avec une croix noire pour zoomer, sur le bouton vert avec un tiret pour effectuer un zoom arrière, ou sur les flèches vertes pour les cartes adjacentes.


METAR-TAF: